This is the latest recevied weather packets stored in our database for station/object SP1BMW-13. If no packets are shown the sender has not sent any weather packets the latest 10 day(s).
| Time | Temp. | Humidity | Pressure | Rain* | Wind** | Luminosity | Snow |
|---|---|---|---|---|---|---|---|
| 1788110738 | 22.78° C | 56% | 1009.5 hPa | 0 mm | 0.89 m/s, 337° | 17 W/m² | - |
| 1788110678 | 22.78° C | 56% | 1009.2 hPa | 0 mm | 0.89 m/s, 31° | 18 W/m² | - |
| 1788110618 | 22.78° C | 56% | 1009.3 hPa | 0 mm | 0.89 m/s, 170° | 18 W/m² | - |
| 1788110558 | 22.78° C | 55% | 1009.4 hPa | 0 mm | 1.34 m/s, 287° | 19 W/m² | - |
| 1788110498 | 22.78° C | 55% | 1009.4 hPa | 0 mm | 1.79 m/s, 242° | 19 W/m² | - |
| 1788110438 | 22.78° C | 55% | 1009.2 hPa | 0 mm | 1.79 m/s, 159° | 20 W/m² | - |
| 1788110378 | 22.78° C | 55% | 1009.2 hPa | 0 mm | 0.89 m/s, 245° | 20 W/m² | - |
| 1788110318 | 23.33° C | 55% | 1009.3 hPa | 0 mm | 1.79 m/s, 238° | 21 W/m² | - |
| 1788110258 | 23.33° C | 56% | 1009.3 hPa | 0 mm | 0.45 m/s, 46° | 21 W/m² | - |
| 1788110198 | 23.33° C | 55% | 1009.4 hPa | 0 mm | 1.34 m/s, 306° | 21 W/m² | - |
| 1788110138 | 23.33° C | 55% | 1009.2 hPa | 0 mm | 0.89 m/s, 247° | 22 W/m² | - |
| 1788110078 | 23.33° C | 55% | 1009.2 hPa | 0 mm | 0.45 m/s, 162° | 22 W/m² | - |
| 1788110018 | 23.33° C | 54% | 1009.2 hPa | 0 mm | 0.89 m/s, 246° | 22 W/m² | - |
| 1788109959 | 23.33° C | 54% | 1009.2 hPa | 0 mm | 0.89 m/s, 225° | 23 W/m² | - |
| 1788109898 | 23.33° C | 54% | 1009.1 hPa | 0 mm | 0.45 m/s, 110° | 23 W/m² | - |
| 1788109838 | 23.33° C | 54% | 1009.2 hPa | 0 mm | 1.79 m/s, 232° | 23 W/m² | - |
| 1788109780 | 23.33° C | 54% | 1009.1 hPa | 0 mm | 1.79 m/s, 317° | 24 W/m² | - |
| 1788109718 | 23.33° C | 55% | 1009.2 hPa | 0 mm | 2.68 m/s, 248° | 25 W/m² | - |
| 1788109658 | 23.33° C | 55% | 1009.1 hPa | 0 mm | 0.89 m/s, 235° | 25 W/m² | - |
| 1788109598 | 23.33° C | 55% | 1009.2 hPa | 0 mm | 0.89 m/s, 289° | 26 W/m² | - |
| 1788109538 | 23.33° C | 55% | 1008.9 hPa | 0 mm | 0 m/s | 27 W/m² | - |
| 1788109478 | 23.33° C | 55% | 1009.1 hPa | 0 mm | 1.79 m/s, 262° | 28 W/m² | - |
| 1788109418 | 23.33° C | 55% | 1009.1 hPa | 0 mm | 0.89 m/s, 262° | 29 W/m² | - |
| 1788109361 | 23.89° C | 54% | 1009.1 hPa | 0 mm | 0.89 m/s, 284° | 30 W/m² | - |
| 1788109298 | 23.89° C | 54% | 1009.1 hPa | 0 mm | 0.45 m/s, 295° | 31 W/m² | - |
* Rain latest hour (hover to see other rain measurements)
** Current wind speed in m/s (hover to see current wind gust speed)